Teuge International Airport

EHTE · Gelderland, 荷兰

罗盘
风向 的 风向 的 风向 到 风向 060° Teuge International Airport 8/26
风: 4 kt, 2 beaufort

4 kt

2 kt
改变
0 ft 1.000 2.000 3.000 4.000 5.000
Cloud Cloud Cloud Cloud Cloud Cloud Cloud Cloud
OVC 2.400
METAR EHVK 281355Z AUTO 06004KT 340V120 9999 OVC024 03/M02 Q1030 WHT

METAR Teuge International Airport - EHTE/TGE

Teuge International Airport是,荷兰中的中型机场。 该机场有一条跑道: 8/26. 该领域的国际民航组织标志是EHTE 它的国际航空运输协会代码是TGE.

这份报告是针对2023年1月28日 14:55, 当地时间在Volkel Air Base进行的。

机场观察

风向为060°,速度为4 kt。 风向在340°和120°之间变化。

可见度为10 km 或者更多。

有乌云密布在2.400 ft的高度。 破损或更高的上限为2.400 ft。

温度为3 °C,阵风为-1 °C。 露点为-2 °C,相对湿度为70%。 海平面上的气压为1030 hPa (QNH)。

白天

今天,太阳从08:22升起,在17:14降落。 这适用于Teuge International Airport,世界夏令时可能有所不同。 当地时间与世界标准时间之间的时差为+1 小时。 当前,没有夏令时有效。

公司介绍

在这个机场,你可以找到飞行学校。 这个机场上的公司有Vliegles.nl, Vliegschool Special Air Services, E-Flight Academy 和 Flight School Teuge。

体会

在这个机场有飞行课程。 你可以在没有任何经验的情况下预订飞行课程。 在Teuge International Airport预订最多的飞行课程类型是Cessna flying lesson。 这些课程的价格从€ 159开始。 在这里阅读更多关于Cessna flying lesson的信息。你也可以在这个网站上进行预订。

跑道

Id 标题 侧风 逆风 侧风 %
8/26 084°-264° 2 kt 4 kt 41 %

逆风成分最大的方向会被突出显示,并用于横风计算。 这并不一定意味着这个方向在使用。

乌云

2.400 ft OVC 乌云密布

温度 & 天气

温度 3 °C
露点 -2 °C
相对湿度 70%
风寒 -1 °C
Kp-index 2 (0-9)

白天

日出
08:21
中午
12:50
日落
17:18 (2:15)

小工具

你想在你的网站上有一个关于Teuge International Airport的当前航空天气(METAR)的小部件吗?

显示HTML代码

我们和第三方通过cookies跟踪您在我们网站上的互联网行为。如果你继续,我们认为你同意我们的饼干政策